Flight Track Log - Related Links

Times and Time Zones

All times are in EDT time to prevent confusion due to time zone crossing. See the SWA862 flight status page for this flight to view local times or setup timezone preferences in your user account.

Time Position Orientation Groundspeed Altitude Reporting Facility
EDT Latitude Longitude Course Direction KTS MPH feet Rate Location/Type
Tue 08:24:07 PM 35.8542 -78.8878 266° West 214 246 8,500  Level Washington Center
Tue 08:25:07 PM 35.9197 -78.8544 22° Northeast 169 194 11,000 2,250 Climbing Washington Center
Tue 08:26:07 PM 35.9908 -78.7675 45° Northeast 245 282 13,000 2,850 Climbing Washington Center
Tue 08:27:07 PM 36.0681 -78.6883 40° Northeast 306 352 16,700 3,750 Climbing Washington Center
Tue 08:28:07 PM 36.1456 -78.5989 43° Northeast 345 397 20,500 3,150 Climbing Washington Center
Tue 08:29:07 PM 36.2228 -78.5117 42° Northeast 358 412 23,000 1,250 Climbing Washington Center
Tue 08:30:07 PM 36.3128 -78.4144 41° Northeast 391 450 23,000  Level Washington Center
Tue 08:31:07 PM 36.4006 -78.3144 43° Northeast 417 480 23,000  Level Washington Center
Tue 08:32:07 PM 36.4903 -78.2169 41° Northeast 422 486 23,000  Level Washington Center
Tue 08:33:07 PM 36.5736 -78.1344 38° Northeast 422 486 23,000  Level Washington Center
Tue 08:34:07 PM 36.6692 -78.0467 36° Northeast 422 486 23,000  Level Washington Center
Tue 08:35:07 PM 36.7628 -77.9589 37° Northeast 422 486 23,000  Level Washington Center
Tue 08:36:07 PM 36.8606 -77.8711 36° Northeast 422 486 23,000  Level Washington Center
Tue 08:37:07 PM 36.9581 -77.7856 35° Northeast 422 486 23,000  Level Washington Center
Tue 08:38:07 PM 37.0556 -77.7025 34° Northeast 422 486 23,000  Level Washington Center
Tue 08:39:07 PM 37.1508 -77.6217 34° Northeast 422 486 23,000  Level Washington Center
Tue 08:40:07 PM 37.2439 -77.5433 34° Northeast 409 471 23,000  Level Washington Center
Tue 08:41:07 PM 37.3428 -77.4911 23° Northeast 397 457 23,000  Level Washington Center
Tue 08:42:07 PM 37.4497 -77.4544 15° North 390 449 23,000  Level Washington Center
Tue 08:43:07 PM 37.5567 -77.4178 15° North 390 449 23,000  Level Washington Center
Tue 08:44:07 PM 37.6614 -77.3808 16° North 390 449 23,000  Level Washington Center
Tue 08:45:07 PM 37.7683 -77.3467 14° North 390 449 23,000  Level Washington Center
Tue 08:46:07 PM 37.8753 -77.3097 15° North 395 455 23,000  Level Washington Center
Tue 08:47:07 PM 37.9822 -77.2753 14° North 395 455 23,000 -600 Level Washington Center
Tue 08:48:07 PM 38.0869 -77.2381 16° North 395 455 21,800 -1,700 Descending Washington Center
Tue 08:49:07 PM 38.1875 -77.2033 15° North 389 448 19,600 -2,400 Descending Washington Center
Tue 08:50:07 PM 38.2881 -77.1683 15° North 376 433 17,000 -2,300 Descending Washington Center
Tue 08:51:07 PM 38.3864 -77.1306 17° North 376 433 15,000 -1,650 Descending Washington Center
Tue 08:52:07 PM 38.4542 -77.0525 42° Northeast 350 403 13,700 -1,500 Descending Washington Center
Tue 08:53:07 PM 38.5408 -76.9481 43° Northeast 355 409 12,000 -1,600 Descending Washington Center
Tue 08:54:07 PM 38.6064 -76.8669 44° Northeast 328 377 10,500 -1,100 Descending Washington Center
Tue 08:55:07 PM 38.6675 -76.7936 43° Northeast 316 364 9,800 -800 Descending Washington Center
Tue 08:56:07 PM 38.7206 -76.7144 49° Northeast 295 339 8,900 -1,200 Descending Washington Center
Tue 08:57:07 PM 38.7589 -76.6272 61° Northeast 282 325 7,400 -1,462 Descending Washington Center
Tue 08:57:25 PM 38.7667 -76.6000 70° East 294 338 7,000 -1,077 Descending Potomac TRACON
Tue 08:58:25 PM 38.8333 -76.5333 38° Northeast 292 336 6,000 -1,000 Descending Potomac TRACON
Tue 08:59:25 PM 38.9000 -76.5667 339° North 264 304 5,000 -600 Descending Potomac TRACON
Tue 09:00:25 PM 38.9667 -76.5833 349° North 247 284 4,800 -500 Descending Potomac TRACON
Tue 09:01:25 PM 39.0000 -76.6500 303° West 221 254 4,000 -400 Descending Potomac TRACON
Tue 09:02:25 PM 39.0333 -76.7167 303° West 219 252 4,000 -50 Level Potomac TRACON
Tue 09:03:25 PM 39.0667 -76.7833 303° West 220 253 3,900 -526 Descending Potomac TRACON
Tue 09:04:19 PM 39.0833 -76.8500 288° West 217 250 3,000 -600 Descending Potomac TRACON
Tue 09:05:25 PM 39.1167 -76.9167 303° West 205 236 2,700 -476 Descending Potomac TRACON
Tue 09:06:25 PM 39.1667 -76.9333 346° North 220 253 2,000 -350 Descending Potomac TRACON
Tue 09:07:25 PM 39.1833 -76.8667 72° East 197 227 2,000 -158 Level Potomac TRACON
Tue 09:08:19 PM 39.1833 -76.8000 90° East 189 217 1,700 -550 Descending Potomac TRACON
Tue 09:09:25 PM 39.1833 -76.7333 90° East 143 165 900 -727 Descending Potomac TRACON
Tue 09:11:00 PM 39.1667 -76.6667 90° East  Level FlightAware Approximate

Login

Don't have an account? Register now (free) for customized features, flight alerts, and more!